createdAt,value
2018-12-10T00:00:25.040Z,8.40
2018-12-10T00:03:06.375Z,9.50
2018-12-10T00:05:41.654Z,8.30
2018-12-10T00:08:16.838Z,8.40
2018-12-10T00:10:51.738Z,8.40
2018-12-10T00:13:27.107Z,8.40
2018-12-10T00:16:01.850Z,8.80
2018-12-10T00:18:37.181Z,8.30
2018-12-10T00:21:12.042Z,8.40
2018-12-10T00:23:47.533Z,8.30
2018-12-10T00:26:22.206Z,8.90
2018-12-10T00:28:57.306Z,8.60
2018-12-10T00:31:32.651Z,8.30
2018-12-10T00:34:07.715Z,8.20
2018-12-10T00:36:43.234Z,8.00
2018-12-10T00:39:18.617Z,7.70
2018-12-10T00:41:53.787Z,7.60
2018-12-10T00:44:29.149Z,7.50
2018-12-10T00:47:04.005Z,7.60
2018-12-10T00:49:39.037Z,7.60
2018-12-10T00:52:14.602Z,7.60
2018-12-10T00:54:50.168Z,8.50
2018-12-10T00:57:25.415Z,7.70
2018-12-10T01:00:00.595Z,7.70
2018-12-10T01:02:35.258Z,7.30
2018-12-10T01:05:10.355Z,7.70
2018-12-10T01:07:46.203Z,7.70
2018-12-10T01:10:21.562Z,7.70
2018-12-10T01:12:56.240Z,8.60
2018-12-10T01:15:37.868Z,7.70
2018-12-10T01:18:13.666Z,7.70
2018-12-10T01:20:48.423Z,7.70
2018-12-10T01:23:23.778Z,7.70
2018-12-10T01:25:58.807Z,7.80
2018-12-10T01:28:33.944Z,7.80
2018-12-10T01:31:08.979Z,7.80
2018-12-10T01:33:44.215Z,7.90
2018-12-10T01:36:19.405Z,7.90
2018-12-10T01:38:54.125Z,8.70
2018-12-10T01:41:29.384Z,8.00
2018-12-10T01:44:04.934Z,8.00
2018-12-10T01:46:40.648Z,8.00
2018-12-10T01:49:16.144Z,8.70
2018-12-10T01:51:43.728Z,8.10
2018-12-10T01:54:18.886Z,8.10
2018-12-10T01:56:46.685Z,8.00
2018-12-10T01:59:21.922Z,7.80
2018-12-10T02:01:56.986Z,7.70
2018-12-10T02:04:32.106Z,7.60
2018-12-10T02:07:07.421Z,7.60
2018-12-10T02:09:42.319Z,7.50
2018-12-10T02:12:17.515Z,7.50
2018-12-10T02:14:52.461Z,7.50
2018-12-10T02:17:27.644Z,7.50
2018-12-10T02:20:02.684Z,7.50
2018-12-10T02:22:38.114Z,7.60
2018-12-10T02:25:12.892Z,7.60
2018-12-10T02:27:48.154Z,7.60
2018-12-10T02:30:23.098Z,7.60
2018-12-10T02:32:57.798Z,7.70
2018-12-10T02:35:33.069Z,7.60
2018-12-10T02:38:08.349Z,7.70
2018-12-10T02:40:43.997Z,7.60
2018-12-10T02:43:18.778Z,7.60
2018-12-10T02:45:53.995Z,7.60
2018-12-10T02:48:29.997Z,7.70
2018-12-10T02:51:05.025Z,7.70
2018-12-10T02:53:39.739Z,7.70
2018-12-10T02:56:14.966Z,7.70
2018-12-10T02:58:49.726Z,7.70
2018-12-10T03:01:25.125Z,7.80
2018-12-10T03:04:00.674Z,7.80
2018-12-10T03:14:11.415Z,7.90
2018-12-10T03:24:20.562Z,7.90
2018-12-10T03:26:55.894Z,7.90
2018-12-10T03:29:31.379Z,7.90
2018-12-10T03:32:06.595Z,7.90
2018-12-10T03:34:41.533Z,8.00
2018-12-10T03:37:16.775Z,8.00
2018-12-10T03:39:52.055Z,8.00
2018-12-10T03:42:27.233Z,8.80
2018-12-10T03:45:02.825Z,8.00
2018-12-10T03:47:38.234Z,8.10
2018-12-10T03:50:13.115Z,8.10
2018-12-10T03:52:48.320Z,8.10
2018-12-10T03:55:22.969Z,8.10
2018-12-10T03:57:57.893Z,8.10
2018-12-10T04:00:33.255Z,8.10
2018-12-10T04:03:07.978Z,8.10
2018-12-10T04:05:43.225Z,8.20
2018-12-10T04:08:18.201Z,8.20
2018-12-10T04:10:53.535Z,8.30
2018-12-10T04:13:28.267Z,8.70
2018-12-10T04:16:03.559Z,8.30
2018-12-10T04:18:38.631Z,8.20
2018-12-10T04:21:13.470Z,8.10
2018-12-10T04:23:48.327Z,8.00
2018-12-10T04:26:23.273Z,7.80
2018-12-10T04:28:58.317Z,7.60
2018-12-10T04:31:33.466Z,7.50
2018-12-10T04:34:08.610Z,7.40
2018-12-10T04:36:43.501Z,7.40
2018-12-10T04:39:18.561Z,7.40
2018-12-10T04:41:53.675Z,7.30
2018-12-10T04:44:28.970Z,7.30
2018-12-10T04:47:04.991Z,7.20
2018-12-10T04:49:40.440Z,7.20
2018-12-10T04:52:15.406Z,7.20
2018-12-10T04:54:50.931Z,7.30
2018-12-10T04:57:26.687Z,7.30
2018-12-10T05:00:02.258Z,8.00
2018-12-10T05:02:36.857Z,7.30
2018-12-10T05:05:11.892Z,7.40
2018-12-10T05:07:47.070Z,7.40
2018-12-10T05:10:22.489Z,7.50
2018-12-10T05:12:57.183Z,7.50
2018-12-10T05:15:32.650Z,7.50
2018-12-10T05:18:07.441Z,7.60
2018-12-10T05:23:17.747Z,7.60
2018-12-10T05:25:52.727Z,8.60
2018-12-10T05:28:27.777Z,7.60
2018-12-10T05:31:02.492Z,7.60
2018-12-10T05:33:37.486Z,7.60
2018-12-10T05:36:12.419Z,7.60
2018-12-10T05:38:47.698Z,7.60
2018-12-10T05:41:23.189Z,7.60
2018-12-10T05:43:58.263Z,7.70
2018-12-10T05:46:33.305Z,7.70
2018-12-10T05:49:08.389Z,7.70
2018-12-10T05:51:43.950Z,8.30
2018-12-10T05:54:19.125Z,7.80
2018-12-10T05:56:46.962Z,7.80
2018-12-10T05:59:16.234Z,7.80
2018-12-10T06:01:51.504Z,7.90
2018-12-10T06:04:22.657Z,8.00
2018-12-10T06:07:00.137Z,8.00
2018-12-10T06:09:27.688Z,8.00
2018-12-10T06:11:58.466Z,8.10
2018-12-10T06:14:26.077Z,8.10
2018-12-10T06:17:00.689Z,8.10
2018-12-10T06:19:35.849Z,8.10
2018-12-10T06:22:10.602Z,8.00
2018-12-10T06:24:38.186Z,7.90
2018-12-10T06:27:05.941Z,7.90
2018-12-10T06:29:33.942Z,7.90
2018-12-10T06:32:01.808Z,7.90
2018-12-10T06:34:30.275Z,7.80
2018-12-10T06:36:57.945Z,7.70
2018-12-10T06:39:25.501Z,7.80
2018-12-10T06:41:53.010Z,7.60
2018-12-10T06:44:20.577Z,7.50
2018-12-10T06:46:48.212Z,7.60
2018-12-10T06:49:15.823Z,7.60
2018-12-10T06:51:43.420Z,7.60
2018-12-10T06:54:11.008Z,7.60
2018-12-10T06:56:38.585Z,7.50
2018-12-10T06:59:06.329Z,7.60
2018-12-10T07:01:33.989Z,7.60
2018-12-10T07:04:01.595Z,7.60
2018-12-10T07:06:29.424Z,7.80
2018-12-10T07:08:57.029Z,7.80
2018-12-10T07:11:24.833Z,7.90
2018-12-10T07:13:52.462Z,7.90
2018-12-10T07:16:20.238Z,7.80
2018-12-10T07:18:47.890Z,7.90
2018-12-10T07:21:15.816Z,7.90
2018-12-10T07:23:43.449Z,8.00
2018-12-10T07:26:11.341Z,8.00
2018-12-10T07:28:38.878Z,8.10
2018-12-10T07:31:06.429Z,8.10
2018-12-10T07:33:33.950Z,8.20
2018-12-10T07:36:01.571Z,8.20
2018-12-10T07:38:29.216Z,8.20
2018-12-10T07:40:56.796Z,8.20
2018-12-10T07:43:24.363Z,8.20
2018-12-10T07:45:51.913Z,8.20
2018-12-10T07:48:19.486Z,8.20
2018-12-10T07:50:47.049Z,8.20
2018-12-10T07:53:14.700Z,8.20
2018-12-10T07:55:42.262Z,8.20
2018-12-10T07:58:09.802Z,8.20
2018-12-10T08:00:37.457Z,8.20
2018-12-10T08:03:05.039Z,8.20
2018-12-10T08:05:32.565Z,8.30
2018-12-10T08:08:00.129Z,8.30
2018-12-10T08:10:27.764Z,8.30
2018-12-10T08:12:55.334Z,8.40
2018-12-10T08:15:22.919Z,8.40
2018-12-10T08:17:50.490Z,8.40
2018-12-10T08:20:18.095Z,8.40
2018-12-10T08:22:45.835Z,8.40
2018-12-10T08:25:23.187Z,8.40
2018-12-10T08:27:50.717Z,8.40
2018-12-10T08:30:18.335Z,8.40
2018-12-10T08:32:45.894Z,8.40
2018-12-10T08:35:13.689Z,8.40
2018-12-10T08:37:41.247Z,8.40
2018-12-10T08:40:08.808Z,8.40
2018-12-10T08:42:36.387Z,8.40
2018-12-10T08:50:00.898Z,8.40
2018-12-10T08:52:28.930Z,8.50
2018-12-10T08:54:56.596Z,8.50
2018-12-10T08:57:24.458Z,8.50
2018-12-10T08:59:52.317Z,8.60
2018-12-10T09:02:19.961Z,8.60
2018-12-10T09:04:47.618Z,8.70
2018-12-10T09:07:15.176Z,8.70
2018-12-10T09:09:42.807Z,8.70
2018-12-10T09:12:10.422Z,8.70
2018-12-10T09:14:38.096Z,8.80
2018-12-10T09:17:05.690Z,8.80
2018-12-10T09:19:33.269Z,8.80
2018-12-10T09:22:00.834Z,8.80
2018-12-10T09:24:28.383Z,8.90
2018-12-10T09:26:55.958Z,8.90
2018-12-10T09:29:23.592Z,9.00
2018-12-10T09:31:51.162Z,9.00
2018-12-10T09:34:18.754Z,9.10
2018-12-10T09:36:46.338Z,9.00
2018-12-10T09:39:13.935Z,9.00
2018-12-10T09:41:41.493Z,9.00
2018-12-10T09:44:09.071Z,9.10
2018-12-10T09:46:36.689Z,9.10
2018-12-10T09:49:04.276Z,9.10
2018-12-10T09:51:31.926Z,9.10
2018-12-10T09:53:59.497Z,9.20
2018-12-10T09:56:27.065Z,9.20
2018-12-10T09:58:54.664Z,9.40
2018-12-10T10:01:22.344Z,9.30
2018-12-10T10:03:50.149Z,9.30
2018-12-10T10:06:17.731Z,9.40
2018-12-10T10:08:45.293Z,9.30
2018-12-10T10:11:12.867Z,9.30
2018-12-10T10:13:40.459Z,9.30
2018-12-10T10:16:08.033Z,9.40
2018-12-10T10:18:35.686Z,9.50
2018-12-10T10:21:03.223Z,9.60
2018-12-10T10:23:30.772Z,9.40
2018-12-10T10:25:58.347Z,9.40
